createdAt,value
2018-09-28T00:00:37.668Z,2.98
2018-09-28T00:03:05.753Z,3.15
2018-09-28T00:05:33.792Z,2.80
2018-09-28T00:08:01.840Z,3.58
2018-09-28T00:10:29.908Z,3.75
2018-09-28T00:12:57.937Z,3.55
2018-09-28T00:15:26.201Z,2.92
2018-09-28T00:17:54.266Z,3.30
2018-09-28T00:20:22.277Z,3.02
2018-09-28T00:22:50.676Z,4.12
2018-09-28T00:25:18.756Z,3.05
2018-09-28T00:27:46.799Z,2.98
2018-09-28T00:30:14.845Z,2.85
2018-09-28T00:32:42.897Z,3.33
2018-09-28T00:35:10.961Z,3.98
2018-09-28T00:37:39.945Z,3.85
2018-09-28T00:40:08.153Z,3.42
2018-09-28T00:42:36.200Z,3.27
2018-09-28T00:45:04.329Z,3.87
2018-09-28T00:47:33.046Z,2.27
2018-09-28T00:50:01.100Z,3.25
2018-09-28T00:52:29.143Z,3.15
2018-09-28T00:54:57.222Z,2.80
2018-09-28T00:57:25.294Z,5.35
2018-09-28T00:59:53.448Z,3.42
2018-09-28T01:02:21.460Z,2.67
2018-09-28T01:04:49.517Z,3.47
2018-09-28T01:07:17.561Z,2.90
2018-09-28T01:09:45.621Z,3.00
2018-09-28T01:12:13.664Z,3.42
2018-09-28T01:14:41.724Z,3.00
2018-09-28T01:17:09.773Z,3.10
2018-09-28T01:19:37.816Z,3.20
2018-09-28T01:22:05.865Z,2.98
2018-09-28T01:24:33.917Z,3.08
2018-09-28T01:27:01.969Z,3.15
2018-09-28T01:29:30.029Z,2.60
2018-09-28T01:31:58.081Z,3.47
2018-09-28T01:34:26.132Z,2.50
2018-09-28T01:36:54.180Z,3.17
2018-09-28T01:39:22.240Z,3.17
2018-09-28T01:41:50.280Z,2.72
2018-09-28T01:44:18.360Z,2.75
2018-09-28T01:46:53.209Z,3.00
2018-09-28T01:49:21.288Z,2.90
2018-09-28T01:51:49.328Z,2.67
2018-09-28T01:54:17.381Z,2.65
2018-09-28T01:56:45.500Z,2.80
2018-09-28T01:59:13.561Z,2.62
2018-09-28T02:01:41.624Z,3.00
2018-09-28T02:04:09.678Z,3.47
2018-09-28T02:06:37.733Z,2.77
2018-09-28T02:09:06.905Z,2.67
2018-09-28T02:11:34.971Z,2.17
2018-09-28T02:14:03.013Z,2.83
2018-09-28T02:16:31.143Z,2.90
2018-09-28T02:18:59.176Z,2.45
2018-09-28T02:21:27.261Z,2.45
2018-09-28T02:23:55.312Z,3.00
2018-09-28T02:26:23.364Z,3.83
2018-09-28T02:28:51.426Z,2.60
2018-09-28T02:31:19.494Z,2.90
2018-09-28T02:33:47.549Z,3.62
2018-09-28T02:36:15.609Z,3.35
2018-09-28T02:38:43.685Z,2.75
2018-09-28T02:41:11.732Z,2.77
2018-09-28T02:43:39.784Z,2.50
2018-09-28T02:46:07.825Z,2.52
2018-09-28T02:48:35.894Z,3.08
2018-09-28T02:51:04.020Z,2.65
2018-09-28T02:53:32.053Z,2.83
2018-09-28T02:56:00.101Z,2.27
2018-09-28T02:58:28.152Z,3.47
2018-09-28T03:00:56.204Z,2.90
2018-09-28T03:03:24.255Z,3.05
2018-09-28T03:05:52.306Z,2.75
2018-09-28T03:08:20.361Z,3.20
2018-09-28T03:10:48.421Z,2.92
2018-09-28T03:13:16.476Z,3.30
2018-09-28T03:15:44.563Z,2.50
2018-09-28T03:18:12.601Z,2.87
2018-09-28T03:20:40.654Z,3.17
2018-09-28T03:23:08.701Z,2.42
2018-09-28T03:25:36.757Z,2.35
2018-09-28T03:28:04.809Z,2.02
2018-09-28T03:30:32.861Z,2.67
2018-09-28T03:33:00.912Z,3.10
2018-09-28T03:35:28.982Z,2.22
2018-09-28T03:37:57.120Z,3.15
2018-09-28T03:40:25.166Z,3.15
2018-09-28T03:42:53.195Z,2.90
2018-09-28T03:45:21.253Z,2.85
2018-09-28T03:47:49.777Z,3.22
2018-09-28T03:50:17.973Z,2.45
2018-09-28T03:52:46.023Z,2.87
2018-09-28T03:55:14.453Z,2.62
2018-09-28T03:57:42.619Z,3.20
2018-09-28T04:00:11.236Z,2.75
2018-09-28T04:02:40.125Z,2.58
2018-09-28T04:05:08.177Z,3.15
2018-09-28T04:07:36.693Z,3.08
2018-09-28T04:10:05.656Z,3.20
2018-09-28T04:12:33.705Z,3.00
2018-09-28T04:15:01.958Z,2.85
2018-09-28T04:17:29.809Z,3.02
2018-09-28T04:19:57.865Z,3.00
2018-09-28T04:22:25.933Z,3.00
2018-09-28T04:24:53.985Z,2.87
2018-09-28T04:27:22.034Z,3.62
2018-09-28T04:29:50.177Z,2.70
2018-09-28T04:32:18.196Z,3.52
2018-09-28T04:34:46.347Z,3.22
2018-09-28T04:37:14.368Z,3.02
2018-09-28T04:39:42.422Z,3.20
2018-09-28T04:42:17.020Z,2.92
2018-09-28T04:44:45.090Z,4.25
2018-09-28T04:47:13.226Z,3.40
2018-09-28T04:49:41.420Z,2.37
2018-09-28T04:52:09.474Z,3.45
2018-09-28T04:54:37.522Z,2.60
2018-09-28T04:57:05.584Z,3.15
2018-09-28T04:59:33.748Z,3.00
2018-09-28T05:02:01.773Z,2.90
2018-09-28T05:04:29.834Z,2.58
2018-09-28T05:06:57.877Z,2.70
2018-09-28T05:09:32.590Z,2.70
2018-09-28T05:12:00.633Z,2.90
2018-09-28T05:14:28.721Z,3.35
2018-09-28T05:16:56.793Z,3.70
2018-09-28T05:19:24.856Z,4.22
2018-09-28T05:21:52.876Z,3.15
2018-09-28T05:24:20.924Z,3.50
2018-09-28T05:26:48.968Z,3.50
2018-09-28T05:29:17.053Z,3.22
2018-09-28T05:31:45.539Z,2.70
2018-09-28T05:34:13.467Z,3.20
2018-09-28T05:36:41.676Z,2.85
2018-09-28T05:39:10.087Z,4.25
2018-09-28T05:41:38.139Z,4.33
2018-09-28T05:44:06.353Z,3.15
2018-09-28T05:46:34.428Z,3.60
2018-09-28T05:49:02.492Z,3.40
2018-09-28T05:51:30.572Z,2.62
2018-09-28T05:53:58.592Z,3.85
2018-09-28T05:56:26.644Z,4.45
2018-09-28T05:59:00.306Z,2.47
2018-09-28T06:01:33.948Z,3.00
2018-09-28T06:04:07.313Z,5.58
2018-09-28T06:06:35.352Z,5.72
2018-09-28T06:09:03.580Z,4.60
2018-09-28T06:11:31.621Z,3.45
2018-09-28T06:13:59.657Z,3.33
2018-09-28T06:16:27.825Z,3.52
2018-09-28T06:18:55.878Z,3.58
2018-09-28T06:21:23.926Z,3.90
2018-09-28T06:23:51.960Z,4.17
2018-09-28T06:26:20.027Z,3.90
2018-09-28T06:28:48.069Z,3.35
2018-09-28T06:31:16.126Z,3.67
2018-09-28T06:33:44.174Z,3.30
2018-09-28T06:36:12.295Z,3.95
2018-09-28T06:38:40.296Z,2.90
2018-09-28T06:41:08.348Z,3.40
2018-09-28T06:43:36.392Z,3.58
2018-09-28T06:46:04.451Z,3.70
2018-09-28T06:48:32.493Z,4.12
2018-09-28T06:51:00.549Z,3.77
2018-09-28T06:53:28.604Z,3.33
2018-09-28T06:55:56.665Z,4.65
2018-09-28T06:58:24.717Z,4.40
2018-09-28T07:00:52.769Z,4.20
2018-09-28T07:03:20.828Z,4.60
2018-09-28T07:05:48.942Z,3.92
2018-09-28T07:08:16.935Z,4.17
2018-09-28T07:10:45.004Z,5.33
2018-09-28T07:13:13.057Z,5.45
2018-09-28T07:15:41.114Z,5.03
2018-09-28T07:18:09.233Z,4.90
2018-09-28T07:20:37.238Z,4.95
2018-09-28T07:23:05.505Z,5.35
2018-09-28T07:25:33.564Z,5.85
2018-09-28T07:28:01.615Z,5.60
2018-09-28T07:30:29.877Z,4.85
2018-09-28T07:32:57.934Z,5.22
2018-09-28T07:35:26.027Z,5.30
2018-09-28T07:37:54.056Z,5.70
2018-09-28T07:40:22.174Z,5.55
2018-09-28T07:42:50.234Z,5.10
2018-09-28T07:45:18.301Z,4.72
2018-09-28T07:47:46.428Z,6.33
2018-09-28T07:50:14.536Z,5.20
2018-09-28T07:52:42.734Z,5.20
2018-09-28T07:55:11.333Z,4.92
2018-09-28T07:57:39.476Z,5.62
2018-09-28T08:00:07.564Z,4.87
2018-09-28T08:02:35.643Z,5.42
2018-09-28T08:05:03.704Z,5.90
2018-09-28T08:07:31.771Z,4.80
2018-09-28T08:09:59.832Z,5.90
2018-09-28T08:12:27.893Z,5.20
2018-09-28T08:14:55.976Z,5.60
2018-09-28T08:17:24.052Z,6.17
2018-09-28T08:19:52.131Z,6.50
2018-09-28T08:22:20.200Z,6.10
2018-09-28T08:24:48.358Z,6.93
2018-09-28T08:27:16.328Z,5.60
2018-09-28T08:29:44.395Z,7.10
2018-09-28T08:32:12.462Z,6.40
2018-09-28T08:34:40.531Z,6.10
2018-09-28T08:37:08.609Z,7.03
2018-09-28T08:39:36.669Z,6.37
2018-09-28T08:42:04.722Z,6.53
2018-09-28T08:44:32.920Z,6.33
2018-09-28T08:47:01.009Z,6.30
2018-09-28T08:49:29.113Z,5.23
2018-09-28T08:51:57.603Z,5.80
2018-09-28T08:54:25.680Z,6.00
2018-09-28T08:56:53.799Z,6.53
2018-09-28T08:59:21.889Z,6.03
2018-09-28T09:01:49.950Z,7.07
2018-09-28T09:04:18.063Z,5.93
2018-09-28T09:06:46.318Z,6.40
2018-09-28T09:09:14.382Z,6.10
2018-09-28T09:11:42.525Z,7.23
2018-09-28T09:14:10.618Z,7.03
2018-09-28T09:16:38.724Z,6.30
2018-09-28T09:19:06.928Z,6.10
2018-09-28T09:21:35.016Z,7.77
2018-09-28T09:24:03.136Z,6.20
2018-09-28T09:26:31.191Z,7.43
2018-09-28T09:28:59.239Z,8.37
2018-09-28T09:31:27.297Z,7.83
2018-09-28T09:33:55.441Z,7.43
2018-09-28T09:36:23.548Z,7.47
2018-09-28T09:38:51.613Z,8.10
2018-09-28T09:41:19.700Z,7.67
2018-09-28T09:43:47.756Z,8.63
2018-09-28T09:46:15.993Z,7.93
2018-09-28T09:48:44.098Z,6.40
2018-09-28T09:51:12.231Z,7.37
2018-09-28T09:53:40.477Z,7.50
2018-09-28T09:56:08.551Z,6.67
2018-09-28T09:58:36.657Z,6.50
2018-09-28T10:01:04.809Z,7.00
2018-09-28T10:03:38.826Z,6.20
2018-09-28T10:06:07.773Z,6.03
2018-09-28T10:08:35.855Z,6.20
2018-09-28T10:11:03.988Z,6.57
2018-09-28T10:13:32.205Z,6.57
2018-09-28T10:16:00.309Z,5.97
2018-09-28T10:18:28.423Z,6.23
2018-09-28T10:20:56.492Z,6.43
2018-09-28T10:23:24.632Z,7.27
2018-09-28T10:25:52.730Z,6.50
2018-09-28T10:28:21.047Z,6.47
2018-09-28T10:30:49.620Z,6.57
2018-09-28T10:33:17.660Z,5.97
2018-09-28T10:35:45.960Z,5.60
2018-09-28T10:38:14.008Z,5.80
2018-09-28T10:40:42.311Z,4.77
2018-09-28T10:43:10.503Z,4.87
2018-09-28T10:45:38.637Z,5.30
2018-09-28T10:48:06.704Z,4.20
2018-09-28T10:50:34.815Z,5.20
2018-09-28T10:53:02.919Z,5.10
2018-09-28T10:55:31.049Z,4.47
2018-09-28T10:57:59.349Z,4.70
2018-09-28T11:00:27.415Z,5.03
2018-09-28T11:02:55.702Z,4.97
2018-09-28T11:05:23.797Z,4.63
2018-09-28T11:07:51.964Z,4.57
2018-09-28T11:10:20.122Z,4.90
2018-09-28T11:12:48.170Z,5.33
2018-09-28T11:15:16.308Z,5.17
2018-09-28T11:17:44.413Z,4.90
2018-09-28T11:20:12.515Z,5.43
2018-09-28T11:22:40.625Z,3.90
2018-09-28T11:25:08.686Z,4.53
2018-09-28T11:27:36.777Z,4.40
2018-09-28T11:30:04.914Z,4.93
2018-09-28T11:32:33.024Z,4.27
2018-09-28T11:35:01.125Z,3.90
2018-09-28T11:37:29.250Z,3.77
2018-09-28T11:39:57.374Z,4.77
2018-09-28T11:42:25.464Z,4.90
2018-09-28T11:44:53.553Z,5.50
2018-09-28T11:47:21.624Z,6.03
2018-09-28T11:49:49.747Z,6.80
2018-09-28T11:52:17.926Z,7.47
2018-09-28T11:54:46.340Z,7.27
2018-09-28T11:57:14.437Z,6.27
2018-09-28T11:59:42.526Z,6.20
2018-09-28T12:02:10.652Z,6.63
2018-09-28T12:04:38.740Z,6.90
2018-09-28T12:07:07.498Z,7.40
2018-09-28T12:09:35.579Z,6.33
2018-09-28T12:12:03.707Z,6.17
2018-09-28T12:14:31.780Z,6.00
2018-09-28T12:16:59.840Z,5.37
2018-09-28T12:19:27.897Z,6.23
2018-09-28T12:21:56.050Z,5.50
2018-09-28T12:24:24.167Z,5.17
2018-09-28T12:26:52.173Z,3.77
2018-09-28T12:29:20.228Z,4.83
2018-09-28T12:31:48.317Z,4.10
2018-09-28T12:34:16.366Z,3.70
2018-09-28T12:36:44.451Z,3.80
2018-09-28T12:39:12.980Z,4.40
2018-09-28T12:41:41.603Z,4.10
2018-09-28T12:44:09.709Z,4.20
2018-09-28T12:46:37.764Z,3.57
2018-09-28T12:49:06.023Z,3.25
2018-09-28T12:51:34.080Z,3.42
2018-09-28T12:54:02.140Z,3.55
2018-09-28T12:56:30.402Z,2.90
2018-09-28T12:58:58.496Z,2.95
2018-09-28T13:01:26.597Z,3.00
2018-09-28T13:03:55.185Z,2.77
2018-09-28T13:06:23.381Z,2.60
2018-09-28T13:08:51.433Z,3.10
2018-09-28T13:11:19.457Z,2.17
2018-09-28T13:13:47.518Z,2.20
2018-09-28T13:16:15.596Z,2.60
2018-09-28T13:18:43.813Z,2.02
2018-09-28T13:21:11.822Z,2.35
2018-09-28T13:23:39.901Z,2.27
2018-09-28T13:26:07.968Z,2.95
2018-09-28T13:28:36.020Z,2.80
2018-09-28T13:31:04.076Z,2.40
2018-09-28T13:33:32.159Z,2.95
2018-09-28T13:36:00.333Z,2.85
2018-09-28T13:38:28.585Z,3.02
2018-09-28T13:40:56.633Z,3.92
2018-09-28T13:43:24.735Z,4.08
2018-09-28T13:45:52.823Z,3.65
2018-09-28T13:48:20.871Z,3.42
2018-09-28T13:50:48.936Z,4.00
2018-09-28T13:53:16.954Z,4.22
2018-09-28T13:55:44.997Z,4.50
2018-09-28T13:58:13.072Z,4.05
2018-09-28T14:00:41.139Z,3.67
2018-09-28T14:03:09.169Z,3.67
2018-09-28T14:05:37.211Z,3.72
2018-09-28T14:08:05.302Z,3.87
2018-09-28T14:10:33.354Z,3.83
2018-09-28T14:13:01.373Z,4.33
2018-09-28T14:15:29.482Z,4.15
2018-09-28T14:17:57.517Z,6.35
2018-09-28T14:20:25.624Z,5.70
2018-09-28T14:22:53.634Z,6.05
2018-09-28T14:25:21.681Z,5.58
2018-09-28T14:27:49.791Z,5.20
2018-09-28T14:30:17.863Z,6.58
2018-09-28T14:32:45.984Z,6.28
2018-09-28T14:35:13.967Z,6.08
2018-09-28T14:37:42.042Z,6.62
2018-09-28T14:40:10.351Z,5.95
2018-09-28T14:42:38.751Z,5.65
2018-09-28T14:45:07.069Z,5.72
2018-09-28T14:47:35.299Z,5.10
2018-09-28T14:50:03.299Z,6.15
2018-09-28T14:52:31.374Z,6.25
2018-09-28T14:54:59.510Z,5.15
2018-09-28T14:57:27.541Z,5.35
2018-09-28T14:59:55.623Z,5.33
2018-09-28T15:02:23.744Z,4.60
2018-09-28T15:04:51.753Z,5.72
2018-09-28T15:07:19.878Z,4.85
2018-09-28T15:09:47.908Z,4.15
2018-09-28T15:12:16.071Z,3.75
2018-09-28T15:14:44.270Z,2.95
2018-09-28T15:17:12.429Z,3.47
2018-09-28T15:19:40.609Z,4.20
2018-09-28T15:22:08.632Z,3.25
2018-09-28T15:24:36.713Z,2.70
2018-09-28T15:27:04.781Z,3.55
2018-09-28T15:29:32.944Z,3.37
2018-09-28T15:32:00.946Z,3.00
2018-09-28T15:34:29.000Z,2.92
2018-09-28T15:36:57.053Z,2.70
2018-09-28T15:39:25.104Z,3.00
2018-09-28T15:41:53.268Z,2.70
2018-09-28T15:44:21.337Z,2.67
2018-09-28T15:46:49.438Z,2.87
2018-09-28T15:49:17.507Z,2.00
2018-09-28T15:51:45.614Z,2.70
2018-09-28T15:54:13.674Z,2.27
2018-09-28T15:56:41.784Z,2.67
2018-09-28T15:59:09.832Z,2.42
2018-09-28T16:01:37.893Z,2.10
2018-09-28T16:04:06.157Z,2.00
2018-09-28T16:06:34.229Z,2.10
2018-09-28T16:09:02.302Z,2.40
2018-09-28T16:11:30.356Z,2.40
2018-09-28T16:13:58.472Z,2.40
2018-09-28T16:16:26.506Z,2.15
2018-09-28T16:18:54.597Z,2.72
2018-09-28T16:21:22.727Z,2.50
2018-09-28T16:23:50.771Z,2.40
2018-09-28T16:26:18.817Z,3.35
2018-09-28T16:28:46.888Z,3.00
2018-09-28T16:31:14.929Z,2.00
2018-09-28T16:33:42.988Z,2.30
2018-09-28T16:36:11.123Z,2.00
2018-09-28T16:38:39.109Z,2.33
2018-09-28T16:41:07.260Z,2.70
2018-09-28T16:43:35.505Z,2.35
2018-09-28T16:46:03.578Z,1.75
2018-09-28T16:48:31.762Z,2.30
2018-09-28T16:50:59.792Z,2.47
2018-09-28T16:53:27.857Z,1.90
2018-09-28T16:55:55.912Z,1.95
2018-09-28T16:58:23.977Z,2.50
2018-09-28T17:00:52.036Z,1.70
2018-09-28T17:03:20.135Z,2.25
2018-09-28T17:05:48.164Z,2.08
2018-09-28T17:08:16.269Z,1.80
2018-09-28T17:10:44.329Z,1.85
2018-09-28T17:13:12.422Z,2.20
2018-09-28T17:15:40.485Z,2.08
2018-09-28T17:18:08.677Z,1.60
2018-09-28T17:20:36.760Z,1.87
2018-09-28T17:23:04.789Z,1.70
2018-09-28T17:25:32.844Z,1.52
2018-09-28T17:28:00.915Z,1.98
2018-09-28T17:30:28.958Z,2.37
2018-09-28T17:32:57.018Z,1.90
2018-09-28T17:35:25.121Z,1.52
2018-09-28T17:37:53.174Z,1.45
2018-09-28T17:40:21.302Z,1.47
2018-09-28T17:42:49.353Z,1.75
2018-09-28T17:45:17.461Z,1.95
2018-09-28T17:47:45.526Z,1.60
2018-09-28T17:50:13.678Z,1.85
2018-09-28T17:52:41.704Z,1.40
2018-09-28T17:55:09.783Z,1.72
2018-09-28T17:57:37.837Z,2.75
2018-09-28T18:00:05.917Z,2.05
2018-09-28T18:02:33.995Z,1.95
2018-09-28T18:05:02.025Z,1.45
2018-09-28T18:07:30.077Z,1.90
2018-09-28T18:09:58.132Z,1.98
2018-09-28T18:12:26.260Z,1.60
2018-09-28T18:14:54.312Z,1.52
2018-09-28T18:17:22.404Z,1.95
2018-09-28T18:19:50.464Z,1.45
2018-09-28T18:22:18.524Z,1.98
2018-09-28T18:24:46.573Z,1.95
2018-09-28T18:27:14.710Z,1.40
2018-09-28T18:29:42.704Z,1.90
2018-09-28T18:32:10.764Z,1.95
2018-09-28T18:34:38.850Z,2.20
2018-09-28T18:37:07.035Z,2.12
2018-09-28T18:39:35.092Z,1.95
2018-09-28T18:42:03.193Z,1.95
2018-09-28T18:44:31.334Z,2.15
2018-09-28T18:46:59.372Z,1.80
2018-09-28T18:49:27.503Z,1.57
2018-09-28T18:51:55.532Z,2.17
2018-09-28T18:54:23.585Z,1.95
2018-09-28T18:56:51.657Z,2.10
2018-09-28T18:59:19.692Z,1.90
2018-09-28T19:01:47.809Z,1.50
2018-09-28T19:04:15.871Z,1.77
2018-09-28T19:06:43.996Z,2.10
2018-09-28T19:09:12.705Z,1.57
2018-09-28T19:11:41.551Z,1.80
2018-09-28T19:14:09.564Z,1.40
2018-09-28T19:16:37.615Z,1.60
2018-09-28T19:19:05.749Z,1.82
2018-09-28T19:21:33.805Z,2.37
2018-09-28T19:24:01.848Z,1.70
2018-09-28T19:26:29.909Z,1.80
2018-09-28T19:28:58.043Z,1.92
2018-09-28T19:31:26.109Z,2.10
2018-09-28T19:33:54.254Z,1.40
2018-09-28T19:36:22.326Z,1.85
2018-09-28T19:38:50.372Z,1.62
2018-09-28T19:41:18.512Z,1.60
2018-09-28T19:43:46.597Z,1.82
2018-09-28T19:46:14.649Z,1.80
2018-09-28T19:48:42.693Z,3.87
2018-09-28T19:51:10.789Z,1.92
2018-09-28T19:53:38.852Z,1.55
2018-09-28T19:56:06.921Z,1.80
2018-09-28T19:58:35.002Z,1.62
2018-09-28T20:01:03.190Z,1.98
2018-09-28T20:03:31.230Z,2.00
2018-09-28T20:05:59.325Z,1.70
2018-09-28T20:08:27.370Z,1.98
2018-09-28T20:10:55.409Z,1.70
2018-09-28T20:13:23.478Z,1.80
2018-09-28T20:15:51.513Z,1.62
2018-09-28T20:18:19.648Z,1.87
2018-09-28T20:20:47.744Z,2.42
2018-09-28T20:23:15.837Z,1.82
2018-09-28T20:25:43.880Z,2.00
2018-09-28T20:28:12.021Z,1.80
2018-09-28T20:30:40.107Z,2.40
2018-09-28T20:33:08.409Z,1.87
2018-09-28T20:35:36.470Z,2.40
2018-09-28T20:38:04.632Z,1.80
2018-09-28T20:40:32.759Z,1.70
2018-09-28T20:43:00.803Z,2.20
2018-09-28T20:45:29.144Z,2.17
2018-09-28T20:47:57.211Z,2.02
2018-09-28T20:50:25.364Z,1.87
2018-09-28T20:52:53.415Z,2.02
2018-09-28T20:55:21.554Z,2.50
2018-09-28T20:57:49.557Z,1.80
2018-09-28T21:00:17.659Z,1.62
2018-09-28T21:02:45.720Z,1.65
2018-09-28T21:05:13.777Z,2.35
2018-09-28T21:07:41.834Z,2.17
2018-09-28T21:10:09.876Z,2.40
2018-09-28T21:12:38.050Z,3.27
2018-09-28T21:15:06.106Z,1.95
2018-09-28T21:17:34.225Z,1.65
2018-09-28T21:20:02.261Z,2.87
2018-09-28T21:22:30.338Z,2.20
2018-09-28T21:24:58.482Z,2.72
2018-09-28T21:27:26.569Z,2.35
2018-09-28T21:29:54.630Z,1.87
2018-09-28T21:32:22.735Z,1.80
2018-09-28T21:34:50.756Z,2.08
2018-09-28T21:37:18.818Z,1.75
2018-09-28T21:39:46.875Z,2.15
2018-09-28T21:42:14.941Z,2.33
2018-09-28T21:44:43.024Z,2.02
2018-09-28T21:47:11.094Z,2.08
2018-09-28T21:49:39.153Z,2.20
2018-09-28T21:52:08.049Z,2.00
2018-09-28T21:54:36.294Z,2.22
2018-09-28T21:57:04.335Z,2.33
2018-09-28T21:59:32.391Z,1.95
2018-09-28T22:02:00.446Z,1.90
2018-09-28T22:04:28.500Z,2.12
2018-09-28T22:06:56.553Z,1.87
2018-09-28T22:09:24.608Z,2.58
2018-09-28T22:11:52.672Z,2.30
2018-09-28T22:14:20.792Z,2.47
2018-09-28T22:16:48.990Z,2.15
2018-09-28T22:19:17.055Z,1.65
2018-09-28T22:21:45.110Z,2.17
2018-09-28T22:24:13.180Z,2.20
2018-09-28T22:26:41.319Z,1.55
2018-09-28T22:29:09.384Z,2.33
2018-09-28T22:31:37.446Z,1.50
2018-09-28T22:34:05.523Z,2.15
2018-09-28T22:36:33.576Z,1.85
2018-09-28T22:39:01.743Z,1.57
2018-09-28T22:41:29.825Z,2.05
2018-09-28T22:43:57.857Z,2.02
2018-09-28T22:46:25.912Z,2.10
2018-09-28T22:48:53.973Z,2.08
2018-09-28T22:51:22.026Z,1.75
2018-09-28T22:53:50.077Z,2.00
2018-09-28T22:56:18.160Z,1.90
2018-09-28T22:58:46.319Z,1.85
2018-09-28T23:01:14.360Z,2.87
2018-09-28T23:03:42.434Z,1.47
2018-09-28T23:06:10.517Z,1.55
2018-09-28T23:08:38.573Z,1.32
2018-09-28T23:11:06.661Z,1.90
2018-09-28T23:13:34.709Z,1.77
2018-09-28T23:16:02.776Z,2.47
2018-09-28T23:18:30.895Z,1.57
2018-09-28T23:20:58.955Z,2.08
2018-09-28T23:23:27.036Z,1.65
2018-09-28T23:25:55.094Z,1.70
2018-09-28T23:28:23.141Z,1.52
2018-09-28T23:30:51.289Z,1.70
2018-09-28T23:33:19.333Z,1.57
2018-09-28T23:35:47.406Z,1.72
2018-09-28T23:38:15.466Z,1.65
2018-09-28T23:40:43.532Z,1.90
2018-09-28T23:43:11.589Z,1.98
2018-09-28T23:45:39.645Z,2.10
2018-09-28T23:48:07.720Z,1.57
2018-09-28T23:50:35.788Z,2.12
2018-09-28T23:53:03.874Z,1.50
2018-09-28T23:55:31.904Z,1.65
2018-09-28T23:57:59.953Z,1.70
